Time;durP1;ratioP1;P1;durP2;ratioP2;P2;SDS_P1;SDS_P2;PMS_P1;PMS_P2;Temp;Humidity;BMP_temperature;BMP_pressure;BME280_temperature;BME280_humidity;BME280_pressure;Samples;Min_cycle;Max_cycle;Signal;HPM_P1;HPM_P2
2023/06/06 00:02:29;;;;;;;7.63;5.60;;;;;;;17.63;100.00;100482.63;10419523;28;20048;-72
2023/06/06 00:07:32;;;;;;;6.43;5.32;;;;;;;17.04;100.00;100407.34;10418490;28;20536;-73
2023/06/06 00:12:33;;;;;;;6.67;5.37;;;;;;;17.42;100.00;100476.47;10418528;28;20405;-72
2023/06/06 00:17:35;;;;;;;7.10;4.45;;;;;;;17.57;100.00;100495.03;10418959;28;20280;-72
2023/06/06 00:22:37;;;;;;;6.95;4.70;;;;;;;17.54;100.00;100507.00;10418591;28;20041;-73
2023/06/06 00:27:38;;;;;;;8.20;4.85;;;;;;;16.98;100.00;100416.22;10418562;28;20096;-72
2023/06/06 00:32:39;;;;;;;13.07;5.50;;;;;;;17.07;100.00;100430.25;10417930;28;20048;-72
2023/06/06 00:37:39;;;;;;;7.47;5.53;;;;;;;17.50;100.00;100499.56;10418079;28;20462;-73
2023/06/06 00:42:40;;;;;;;10.68;5.55;;;;;;;17.55;100.00;100497.09;10417668;28;20049;-73
2023/06/06 00:47:42;;;;;;;14.05;5.95;;;;;;;17.58;100.00;100494.81;10417664;28;20119;-72
2023/06/06 00:52:46;;;;;;;7.28;5.68;;;;;;;17.60;100.00;100505.34;10417093;28;20420;-72
2023/06/06 00:57:47;;;;;;;;;;;;;;;17.81;100.00;100520.41;10418020;28;20493;-72
2023/06/06 01:02:48;;;;;;;16.40;6.50;;;;;;;17.62;100.00;100529.31;10417634;28;19923;-73
2023/06/06 01:07:49;;;;;;;15.27;5.95;;;;;;;17.58;100.00;100543.16;10416293;28;20065;-73
2023/06/06 01:13:13;;;;;;;12.38;5.57;;;;;;;17.66;100.00;100544.00;10416269;28;20042;-73
2023/06/06 01:18:17;;;;;;;58.03;7.43;;;;;;;17.58;100.00;100550.38;10415991;28;20148;-73
2023/06/06 01:23:18;;;;;;;14.18;6.10;;;;;;;17.52;100.00;100546.69;10398900;28;20041;-72
2023/06/06 01:28:19;;;;;;;29.10;6.90;;;;;;;16.80;100.00;100416.84;10415424;28;20191;-72
2023/06/06 01:33:44;;;;;;;8.05;6.15;;;;;;;17.52;100.00;100529.75;10454220;28;20197;-73
2023/06/06 01:38:50;;;;;;;8.93;6.63;;;;;;;17.37;100.00;100526.47;10430118;28;20084;-72
2023/06/06 01:43:55;;;;;;;16.90;6.60;;;;;;;17.41;100.00;100533.91;10415694;28;20042;-73
2023/06/06 01:48:56;;;;;;;27.73;6.60;;;;;;;17.28;100.00;100507.03;10434539;28;20044;-73
2023/06/06 01:53:58;;;;;;;15.07;6.03;;;;;;;17.31;100.00;100520.88;10421258;28;20033;-73
2023/06/06 01:59:00;;;;;;;8.90;6.80;;;;;;;17.57;100.00;100554.94;10428148;28;20559;-73
2023/06/06 02:04:01;;;;;;;10.38;6.40;;;;;;;17.64;100.00;100538.81;10414020;28;20120;-73
2023/06/06 02:09:02;;;;;;;6.90;5.80;;;;;;;17.34;100.00;100477.50;10439541;28;20143;-73
2023/06/06 02:14:03;;;;;;;10.00;6.50;;;;;;;17.88;100.00;100563.38;10456755;28;20065;-73
2023/06/06 02:19:04;;;;;;;8.75;6.00;;;;;;;17.80;100.00;100521.47;10456035;28;20080;-72
2023/06/06 02:24:06;;;;;;;6.75;5.50;;;;;;;17.63;100.00;100493.38;10452858;28;20504;-73
2023/06/06 02:29:06;;;;;;;9.10;5.95;;;;;;;18.20;100.00;100570.53;10413978;28;20558;-73
2023/06/06 02:34:07;;;;;;;5.78;5.18;;;;;;;18.22;100.00;100565.78;10413895;28;20116;-72
2023/06/06 02:39:08;;;;;;;9.75;5.82;;;;;;;17.85;100.00;100497.44;10413065;28;20124;-72
2023/06/06 02:44:09;;;;;;;8.93;6.05;;;;;;;17.56;100.00;100445.84;10413548;28;20048;-73
2023/06/06 02:49:10;;;;;;;14.25;5.95;;;;;;;17.81;100.00;100484.66;10413936;28;20481;-73
2023/06/06 02:54:11;;;;;;;6.95;5.80;;;;;;;17.82;100.00;100502.44;10412978;28;20045;-73
2023/06/06 02:59:12;;;;;;;6.97;5.45;;;;;;;18.44;100.00;100587.81;10413240;28;20047;-72
2023/06/06 03:04:13;;;;;;;9.15;5.43;;;;;;;18.07;100.00;100524.88;10417544;28;20114;-72
2023/06/06 03:09:14;;;;;;;8.50;5.70;;;;;;;18.60;100.00;100601.81;10403876;28;20150;-73
2023/06/06 03:14:16;;;;;;;7.32;5.40;;;;;;;18.77;100.00;100608.38;10422117;28;20068;-72
2023/06/06 03:19:17;;;;;;;8.00;5.20;;;;;;;18.95;100.00;100613.03;10421227;28;20049;-74
2023/06/06 03:24:19;;;;;;;8.48;5.47;;;;;;;18.45;100.00;100499.88;10420488;28;20037;-73
2023/06/06 03:29:20;;;;;;;7.72;4.82;;;;;;;18.56;100.00;100482.22;10416368;28;20129;-73
2023/06/06 03:34:20;;;;;;;6.72;4.88;;;;;;;19.39;100.00;100584.34;10414481;28;20036;-73
2023/06/06 03:39:21;;;;;;;7.93;4.75;;;;;;;19.76;100.00;100619.50;10396718;28;20393;-73
2023/06/06 03:44:22;;;;;;;10.77;5.57;;;;;;;19.71;99.71;100620.16;10413484;28;20045;-72
2023/06/06 03:49:23;;;;;;;12.10;6.38;;;;;;;19.14;99.63;100552.84;10454395;28;20251;-73
2023/06/06 03:54:25;;;;;;;12.27;6.50;;;;;;;19.75;98.45;100612.47;10440729;28;20460;-73
2023/06/06 03:59:26;;;;;;;5.60;4.72;;;;;;;20.35;95.07;100587.53;10443587;28;20629;-73
2023/06/06 04:04:27;;;;;;;8.50;5.18;;;;;;;20.32;93.70;100607.69;10460410;28;20065;-73
2023/06/06 04:09:27;;;;;;;6.85;5.20;;;;;;;20.20;93.68;100631.91;10460112;28;20060;-73
2023/06/06 04:14:28;;;;;;;6.80;5.00;;;;;;;19.69;93.46;100565.66;10448428;28;20500;-72
2023/06/06 04:19:30;;;;;;;8.38;6.05;;;;;;;19.83;93.11;100606.75;10427131;28;20049;-73
2023/06/06 04:24:31;;;;;;;7.20;4.40;;;;;;;20.05;93.11;100643.06;10418554;28;20049;-73
2023/06/06 04:29:35;;;;;;;9.77;5.93;;;;;;;20.08;92.57;100646.38;10418517;28;20060;-73
2023/06/06 04:34:40;;;;;;;8.23;5.65;;;;;;;20.15;91.49;100652.50;10418138;28;20037;-73
2023/06/06 04:39:41;;;;;;;15.18;5.78;;;;;;;20.26;91.10;100649.06;10417923;28;20497;-73
2023/06/06 04:44:42;;;;;;;8.45;4.90;;;;;;;20.37;90.71;100652.88;10420016;28;20042;-73
2023/06/06 04:49:43;;;;;;;8.40;4.65;;;;;;;20.59;89.06;100664.09;10449568;28;20045;-72
2023/06/06 04:54:45;;;;;;;24.52;6.85;;;;;;;20.59;88.42;100664.09;10416483;28;20128;-74
2023/06/06 04:59:53;;;;;;;10.70;6.70;;;;;;;20.55;88.57;100652.06;10415213;28;20468;-75
2023/06/06 05:04:58;;;;;;;11.48;6.72;;;;;;;20.58;87.96;100660.56;10416768;28;20041;-74
2023/06/06 05:09:58;;;;;;;8.00;4.43;;;;;;;20.69;88.61;100665.19;10399896;28;20408;-74
2023/06/06 05:15:00;;;;;;;8.20;5.30;;;;;;;20.46;87.79;100600.25;10416213;28;20037;-74
2023/06/06 05:20:00;;;;;;;10.15;7.32;;;;;;;20.91;87.04;100668.25;10416219;28;20041;-74
2023/06/06 05:25:01;;;;;;;17.52;11.85;;;;;;;21.15;86.62;100668.34;10415507;28;20378;-73
2023/06/06 05:30:03;;;;;;;10.82;5.80;;;;;;;21.32;86.54;100666.59;10444270;28;20048;-74
2023/06/06 05:35:06;;;;;;;10.73;4.40;;;;;;;21.34;85.56;100656.41;10457239;28;20049;-75
2023/06/06 05:40:09;;;;;;;4.93;3.53;;;;;;;21.49;84.22;100658.69;10418355;28;20041;-75
2023/06/06 05:45:10;;;;;;;26.00;13.77;;;;;;;21.55;83.58;100651.53;10415479;28;20095;-73
2023/06/06 05:50:11;;;;;;;10.23;5.15;;;;;;;21.40;82.65;100595.22;10415220;28;20046;-74
2023/06/06 05:55:35;;;;;;;4.88;3.15;;;;;;;21.66;80.32;100599.34;10415394;28;20410;-76
2023/06/06 06:00:36;;;;;;;3.42;2.50;;;;;;;22.10;78.22;100603.31;10415749;28;20124;-75
2023/06/06 06:05:37;;;;;;;3.60;2.45;;;;;;;22.97;75.27;100658.44;10396451;28;20479;-73
2023/06/06 06:10:38;;;;;;;5.32;3.03;;;;;;;22.99;73.63;100610.25;10414976;28;20057;-74
2023/06/06 06:15:39;;;;;;;5.47;2.75;;;;;;;23.37;73.07;100662.97;10413926;28;20041;-75
2023/06/06 06:20:41;;;;;;;8.10;2.83;;;;;;;23.21;73.38;100632.88;10414850;28;20417;-73
2023/06/06 06:25:43;;;;;;;3.47;2.58;;;;;;;23.12;72.23;100601.81;10425303;28;20043;-75
2023/06/06 06:30:43;;;;;;;7.68;2.78;;;;;;;23.32;71.31;100636.56;10423341;28;20060;-77
2023/06/06 06:35:45;;;;;;;5.53;2.55;;;;;;;23.59;70.98;100672.00;10439611;28;20590;-75
2023/06/06 06:40:45;;;;;;;4.18;2.60;;;;;;;23.96;70.49;100668.81;10435324;28;20052;-74
2023/06/06 06:45:46;;;;;;;11.40;3.05;;;;;;;23.90;68.50;100536.84;10449505;28;20497;-75
2023/06/06 06:50:47;;;;;;;5.13;3.00;;;;;;;24.67;65.36;100605.66;10452417;28;20041;-76
2023/06/06 06:55:51;;;;;;;15.23;3.30;;;;;;;24.53;64.79;100546.31;10453879;28;20091;-76
2023/06/06 07:00:53;;;;;;;5.80;2.45;;;;;;;25.44;63.87;100662.44;10451076;28;20049;-78
2023/06/06 07:05:54;;;;;;;3.85;2.30;;;;;;;25.40;62.00;100614.28;10453116;28;20491;-78
2023/06/06 07:10:55;;;;;;;3.83;2.40;;;;;;;25.64;61.12;100669.97;10450450;28;20065;-76
2023/06/06 07:15:56;;;;;;;6.63;2.28;;;;;;;25.00;61.76;100600.03;10452180;28;20037;-77
2023/06/06 07:20:57;;;;;;;8.25;2.47;;;;;;;25.28;61.89;100666.13;10445962;28;20044;-77
2023/06/06 07:25:58;;;;;;;3.72;2.60;;;;;;;25.38;62.06;100659.94;10443328;28;20378;-76
2023/06/06 07:30:59;;;;;;;6.07;2.35;;;;;;;25.48;61.28;100663.56;10448616;28;20049;-76
2023/06/06 07:36:00;;;;;;;30.02;4.53;;;;;;;25.43;62.29;100657.28;10447561;28;20086;-76
2023/06/06 07:41:02;;;;;;;17.08;3.20;;;;;;;25.31;61.97;100659.31;10449946;28;20041;-75
2023/06/06 07:46:03;;;;;;;7.05;2.67;;;;;;;25.16;62.25;100654.56;10432194;28;20142;-79
2023/06/06 07:51:04;;;;;;;3.80;2.50;;;;;;;24.99;62.16;100620.13;10455254;28;20115;-77
2023/06/06 07:56:06;;;;;;;3.28;2.55;;;;;;;24.99;60.37;100620.13;10450034;28;20140;-77
2023/06/06 08:01:09;;;;;;;4.07;2.60;;;;;;;25.44;60.47;100648.03;10431896;28;20037;-76
2023/06/06 08:06:10;;;;;;;10.40;3.70;;;;;;;25.77;58.56;100646.91;10460723;28;20044;-77
2023/06/06 08:11:10;;;;;;;4.80;2.80;;;;;;;25.68;58.75;100659.38;10423867;28;20068;-75
2023/06/06 08:16:11;;;;;;;4.07;2.17;;;;;;;25.58;57.62;100632.91;10433090;28;20132;-77
2023/06/06 08:21:12;;;;;;;5.10;2.83;;;;;;;25.40;58.63;100663.22;10452219;28;20102;-78
2023/06/06 08:26:12;;;;;;;5.18;2.72;;;;;;;25.31;59.41;100638.41;10456416;28;20037;-76
2023/06/06 08:31:14;;;;;;;9.25;2.80;;;;;;;25.47;58.59;100647.50;10458197;28;20059;-75
2023/06/06 08:36:14;;;;;;;5.55;2.35;;;;;;;25.50;58.69;100653.25;10439475;28;20041;-76
2023/06/06 08:41:16;;;;;;;5.78;3.00;;;;;;;25.09;58.49;100580.53;10457850;28;20082;-76
2023/06/06 08:46:17;;;;;;;3.53;2.53;;;;;;;25.49;58.84;100643.44;10457173;28;20458;-76
2023/06/06 08:51:24;;;;;;;10.55;3.17;;;;;;;25.61;58.05;100654.16;10457009;28;20036;-76
2023/06/06 08:56:26;;;;;;;3.97;2.80;;;;;;;25.60;58.70;100647.06;10456043;28;20120;-77
2023/06/06 09:01:27;;;;;;;7.82;2.63;;;;;;;25.51;58.99;100638.56;10455884;28;20033;-76
2023/06/06 09:06:28;;;;;;;6.30;2.78;;;;;;;25.68;58.79;100653.91;10456490;28;20037;-77
2023/06/06 09:11:29;;;;;;;3.83;2.70;;;;;;;25.69;57.76;100639.22;10455681;28;20421;-77
2023/06/06 09:16:31;;;;;;;5.65;2.60;;;;;;;25.67;57.49;100644.94;10417265;28;20132;-75
2023/06/06 09:21:32;;;;;;;240.90;18.10;;;;;;;25.50;58.04;100568.09;10416917;28;20041;-76
2023/06/06 09:26:38;;;;;;;7.00;3.00;;;;;;;25.72;54.56;100559.81;10416962;28;20049;-76
2023/06/06 09:31:40;;;;;;;6.13;2.55;;;;;;;25.49;52.34;100561.84;10415645;28;20394;-76
2023/06/06 09:36:42;;;;;;;6.45;2.55;;;;;;;25.56;52.73;100620.66;10416110;28;20034;-75
2023/06/06 09:41:47;;;;;;;11.95;3.55;;;;;;;25.32;53.11;100577.50;10416289;28;20120;-75
2023/06/06 09:46:57;;;;;;;7.88;2.38;;;;;;;25.67;53.83;100615.03;10415541;28;20033;-76
2023/06/06 09:51:58;;;;;;;10.02;2.58;;;;;;;25.36;52.51;100553.31;10417855;28;20072;-77
2023/06/06 09:56:59;;;;;;;4.05;2.40;;;;;;;25.45;52.63;100587.91;10453409;28;20138;-77
2023/06/06 10:02:05;;;;;;;5.68;2.80;;;;;;;25.26;53.08;100592.94;10455650;28;20436;-76
2023/06/06 10:07:08;;;;;;;8.07;3.00;;;;;;;25.15;53.92;100593.94;10455956;28;20048;-77
2023/06/06 10:12:10;;;;;;;10.48;2.88;;;;;;;24.95;54.06;100578.25;10456224;28;20052;-76
2023/06/06 10:17:13;;;;;;;8.98;2.97;;;;;;;24.94;54.07;100571.16;10455626;28;20094;-77
2023/06/06 10:22:14;;;;;;;6.90;2.50;;;;;;;25.16;53.49;100578.44;10455517;28;20048;-77
2023/06/06 10:27:18;;;;;;;5.82;2.60;;;;;;;24.95;53.43;100509.47;10454595;28;20041;-77
2023/06/06 10:32:30;;;;;;;10.55;2.63;;;;;;;25.60;54.74;100580.94;10455404;28;20033;-78
2023/06/06 10:37:33;;;;;;;5.22;2.35;;;;;;;25.75;53.29;100578.31;10454551;28;20412;-75
2023/06/06 10:42:37;;;;;;;6.72;2.72;;;;;;;25.83;49.76;100560.72;10455436;28;20049;-77
2023/06/06 10:47:40;;;;;;;6.28;2.50;;;;;;;25.54;49.08;100497.66;10454681;28;20080;-77
2023/06/06 10:52:45;;;;;;;;;;;;;;;26.33;50.84;100568.28;10454469;28;20041;-77
2023/06/06 10:58:09;;;;;;;10.57;2.55;;;;;;;26.09;48.17;100567.13;10455176;28;20387;-79
2023/06/06 11:03:15;;;;;;;3.83;2.30;;;;;;;25.77;50.24;100561.75;10453825;28;20041;-77
2023/06/06 11:08:17;;;;;;;4.43;2.28;;;;;;;25.85;51.20;100564.00;10454106;28;20057;-79
2023/06/06 11:13:27;;;;;;;4.70;2.33;;;;;;;25.95;49.83;100555.88;10453807;28;20063;-77
2023/06/06 11:18:40;;;;;;;7.18;2.50;;;;;;;26.04;49.12;100553.47;10454464;28;20087;-79
2023/06/06 11:23:41;;;;;;;5.45;2.13;;;;;;;25.51;50.04;100491.66;10456370;28;20041;-78
2023/06/06 11:28:43;;;;;;;6.25;2.45;;;;;;;26.00;50.62;100536.03;10462250;28;20408;-79
2023/06/06 11:33:43;;;;;;;3.90;2.13;;;;;;;25.85;50.48;100474.19;10462104;28;20208;-79
2023/06/06 11:38:45;;;;;;;8.15;2.65;;;;;;;26.29;50.00;100545.38;10461285;28;20086;-78
2023/06/06 11:43:50;;;;;;;5.72;2.20;;;;;;;26.26;49.14;100556.81;10461467;28;20091;-76
2023/06/06 11:48:58;;;;;;;6.03;2.28;;;;;;;26.19;50.46;100553.53;10461769;28;20045;-79
2023/06/06 11:54:10;;;;;;;7.43;2.47;;;;;;;26.34;49.58;100550.84;10461190;28;20041;-78
2023/06/06 11:59:14;;;;;;;6.30;2.20;;;;;;;25.90;49.42;100513.13;10443300;28;20543;-80
2023/06/06 12:04:17;;;;;;;4.55;2.30;;;;;;;25.97;49.68;100548.28;10460884;28;20516;-80
2023/06/06 12:09:19;;;;;;;4.75;2.38;;;;;;;25.54;49.49;100479.44;10459938;28;20061;-78
2023/06/06 12:14:25;;;;;;;6.43;2.03;;;;;;;25.56;49.00;100481.91;10457995;28;20400;-76
2023/06/06 12:19:26;;;;;;;3.40;2.50;;;;;;;25.85;48.84;100534.88;10428655;28;20063;-78
2023/06/06 12:24:29;;;;;;;3.75;2.20;;;;;;;25.89;48.66;100538.69;10423315;28;20049;-77
2023/06/06 12:29:35;;;;;;;3.10;2.20;;;;;;;25.17;49.80;100406.13;10447889;28;20041;-78
2023/06/06 12:34:48;;;;;;;5.78;2.15;;;;;;;26.03;49.31;100530.06;10460000;28;20044;-77
2023/06/06 12:39:49;;;;;;;9.32;2.83;;;;;;;25.61;48.84;100439.25;10459815;28;20072;-78
2023/06/06 12:44:50;;;;;;;7.93;2.55;;;;;;;26.09;49.42;100508.03;10443399;28;20127;-76
2023/06/06 12:49:51;;;;;;;9.30;2.40;;;;;;;26.36;48.03;100507.84;10417660;28;20170;-77
2023/06/06 12:54:52;;;;;;;3.92;2.30;;;;;;;26.89;46.67;100525.91;10417045;28;20037;-81
2023/06/06 12:59:53;;;;;;;7.00;2.50;;;;;;;26.63;48.16;100520.44;10412404;28;20034;-76
2023/06/06 13:04:53;;;;;;;10.35;2.88;;;;;;;26.66;47.53;100513.66;10418495;28;20061;-76
2023/06/06 13:09:55;;;;;;;6.28;2.47;;;;;;;26.26;48.47;100505.06;10441415;28;20064;-76
2023/06/06 13:14:56;;;;;;;4.65;2.40;;;;;;;26.13;48.20;100514.56;10457594;28;20048;-76
2023/06/06 13:19:57;;;;;;;10.52;2.78;;;;;;;25.39;48.68;100447.53;10457978;28;20041;-75
2023/06/06 13:24:58;;;;;;;7.68;2.97;;;;;;;25.32;48.67;100474.16;10457695;28;20041;-75
2023/06/06 13:29:58;;;;;;;13.75;2.60;;;;;;;25.48;49.33;100516.69;10457314;28;20119;-75
2023/06/06 13:34:59;;;;;;;11.63;3.08;;;;;;;25.02;49.73;100458.44;10438969;28;20567;-74
2023/06/06 13:40:00;;;;;;;7.78;2.60;;;;;;;25.15;49.35;100514.28;10457240;28;20040;-74
2023/06/06 13:45:01;;;;;;;4.43;2.40;;;;;;;25.14;50.55;100518.91;10456558;28;20044;-74
2023/06/06 13:50:03;;;;;;;10.10;3.55;;;;;;;25.12;50.64;100521.03;10455789;28;20135;-75
2023/06/06 13:55:05;;;;;;;6.63;3.20;;;;;;;24.92;50.47;100524.41;10455944;28;20040;-75
2023/06/06 14:00:08;;;;;;;13.88;3.20;;;;;;;24.24;50.92;100460.72;10456269;28;20041;-75
2023/06/06 14:05:09;;;;;;;;;;;;;;;24.71;50.36;100519.84;10454652;28;20083;-73
2023/06/06 14:10:10;;;;;;;19.92;3.72;;;;;;;24.40;51.02;100526.84;10433091;28;20462;-74
2023/06/06 14:15:11;;;;;;;7.97;3.40;;;;;;;24.15;51.12;100499.16;10414852;28;20041;-75
2023/06/06 14:20:13;;;;;;;14.55;2.88;;;;;;;24.28;51.38;100521.56;10413900;28;20516;-74
2023/06/06 14:25:15;;;;;;;8.93;2.28;;;;;;;24.24;52.15;100540.25;10413453;28;20042;-75
2023/06/06 14:30:16;;;;;;;8.32;2.45;;;;;;;24.13;53.09;100531.16;10413724;28;20055;-75
2023/06/06 14:35:17;;;;;;;5.40;2.60;;;;;;;23.96;53.11;100538.56;10413687;28;20561;-75
2023/06/06 14:40:18;;;;;;;13.23;2.70;;;;;;;23.36;53.73;100466.13;10413135;28;20038;-74
2023/06/06 14:45:19;;;;;;;9.18;3.05;;;;;;;23.48;54.19;100502.06;10413603;28;20045;-73
2023/06/06 14:50:21;;;;;;;8.50;2.78;;;;;;;23.57;55.02;100537.72;10412987;28;20037;-74
2023/06/06 14:55:21;;;;;;;27.05;3.35;;;;;;;23.47;55.73;100532.97;10413328;28;20397;-73
2023/06/06 15:00:23;;;;;;;10.98;2.65;;;;;;;23.47;55.82;100557.38;10413519;28;20043;-74
2023/06/06 15:05:24;;;;;;;13.18;2.95;;;;;;;23.40;55.97;100545.91;10413109;28;20057;-74
2023/06/06 15:10:25;;;;;;;10.50;2.72;;;;;;;23.35;56.22;100560.19;10412330;28;20172;-73
2023/06/06 15:15:26;;;;;;;8.00;2.40;;;;;;;23.29;57.01;100558.47;10412543;28;20049;-73
2023/06/06 15:20:28;;;;;;;9.63;2.60;;;;;;;23.16;57.18;100556.91;10412891;28;20077;-74
2023/06/06 15:25:28;;;;;;;20.17;3.92;;;;;;;23.12;58.55;100569.28;10412545;28;20041;-73
2023/06/06 15:30:29;;;;;;;11.48;3.17;;;;;;;23.10;58.90;100578.75;10420422;28;20485;-73
2023/06/06 15:35:30;;;;;;;6.07;2.47;;;;;;;22.95;59.88;100563.06;10401525;28;20053;-73
2023/06/06 15:40:31;;;;;;;15.23;3.30;;;;;;;22.72;59.41;100536.88;10420441;28;20068;-73
2023/06/06 15:45:32;;;;;;;6.53;2.67;;;;;;;22.89;58.86;100574.84;10447371;28;20041;-74
2023/06/06 15:50:33;;;;;;;11.07;2.78;;;;;;;22.79;59.17;100565.47;10416693;28;20046;-73
2023/06/06 15:55:34;;;;;;;16.60;8.10;;;;;;;22.27;59.45;100491.66;10394467;28;20513;-74
2023/06/06 16:00:35;;;;;;;13.13;4.53;;;;;;;22.84;59.13;100583.69;10412050;28;20037;-73
2023/06/06 16:05:36;;;;;;;21.90;4.15;;;;;;;22.64;59.82;100570.56;10422351;28;20106;-74
2023/06/06 16:10:37;;;;;;;55.00;33.88;;;;;;;22.71;58.30;100592.94;10419146;28;20077;-74
2023/06/06 16:15:38;;;;;;;22.10;13.68;;;;;;;22.56;57.22;100587.22;10425072;28;20041;-73
2023/06/06 16:20:39;;;;;;;19.35;13.02;;;;;;;22.54;56.04;100586.63;10430368;28;20041;-73
2023/06/06 16:25:40;;;;;;;26.25;20.02;;;;;;;22.05;55.67;100513.94;10434305;28;20123;-74
2023/06/06 16:30:41;;;;;;;51.28;36.55;;;;;;;22.23;55.30;100564.38;10455018;28;20545;-73
2023/06/06 16:35:42;;;;;;;15.15;10.00;;;;;;;21.61;55.98;100467.59;10444613;28;20120;-73
2023/06/06 16:40:43;;;;;;;20.73;13.75;;;;;;;22.30;56.53;100588.59;10427187;28;20052;-74
2023/06/06 16:45:44;;;;;;;14.00;6.35;;;;;;;22.12;55.75;100586.84;10419005;28;20087;-73
2023/06/06 16:50:44;;;;;;;17.83;8.30;;;;;;;22.11;55.77;100598.72;10442189;28;20041;-74
2023/06/06 16:55:45;;;;;;;10.98;4.20;;;;;;;22.04;55.66;100616.97;10422715;28;20045;-74
2023/06/06 17:00:46;;;;;;;10.70;6.32;;;;;;;21.92;55.70;100618.84;10435692;28;20041;-74
2023/06/06 17:05:47;;;;;;;5.82;2.47;;;;;;;21.80;55.70;100627.78;10418092;28;20515;-74
2023/06/06 17:10:48;;;;;;;4.40;2.53;;;;;;;21.59;55.68;100612.97;10417372;28;20053;-74
2023/06/06 17:15:48;;;;;;;7.45;3.35;;;;;;;21.46;56.04;100628.59;10416340;28;20033;-74
2023/06/06 17:20:49;;;;;;;8.37;2.80;;;;;;;21.38;56.34;100633.28;10415168;28;20484;-73
2023/06/06 17:25:51;;;;;;;5.35;2.67;;;;;;;21.22;56.55;100638.50;10427429;28;20489;-74
2023/06/06 17:30:53;;;;;;;10.63;2.97;;;;;;;21.05;57.05;100636.44;10425006;28;20090;-74
2023/06/06 17:35:54;;;;;;;6.43;3.35;;;;;;;20.47;58.40;100569.53;10417662;28;20049;-73
2023/06/06 17:40:55;;;;;;;17.63;7.35;;;;;;;20.65;58.40;100630.78;10431591;28;20564;-73
2023/06/06 17:45:56;;;;;;;13.95;7.07;;;;;;;20.55;59.47;100641.28;10415797;28;20048;-73
2023/06/06 17:50:57;;;;;;;14.00;7.78;;;;;;;20.47;61.21;100663.97;10416126;28;20040;-73
2023/06/06 17:55:58;;;;;;;17.50;9.60;;;;;;;20.32;62.33;100660.84;10414763;28;20091;-73
2023/06/06 18:00:59;;;;;;;22.60;5.85;;;;;;;19.76;63.02;100582.56;10414492;28;20037;-72
2023/06/06 18:06:00;;;;;;;7.40;4.30;;;;;;;20.00;63.47;100628.59;10423192;28;20448;-73
2023/06/06 18:11:01;;;;;;;9.82;3.85;;;;;;;19.63;63.71;100581.88;10430765;28;20056;-73
2023/06/06 18:16:02;;;;;;;10.77;5.72;;;;;;;19.04;63.58;100508.59;10424672;28;20500;-73
2023/06/06 18:21:03;;;;;;;7.75;4.13;;;;;;;19.78;65.10;100647.88;10414313;28;20048;-74
2023/06/06 18:26:06;;;;;;;8.75;4.47;;;;;;;19.51;66.55;100652.63;10413806;28;20462;-73
2023/06/06 18:31:07;;;;;;;8.93;4.60;;;;;;;19.36;67.61;100660.22;10414327;28;20037;-73
2023/06/06 18:36:08;;;;;;;10.82;4.70;;;;;;;19.52;67.45;100670.44;10396879;28;20041;-73
2023/06/06 18:41:08;;;;;;;7.25;3.45;;;;;;;19.57;67.51;100640.16;10413190;28;20120;-74
2023/06/06 18:46:13;;;;;;;8.27;2.92;;;;;;;19.64;67.59;100635.53;10413650;28;20069;-73
2023/06/06 18:51:14;;;;;;;8.85;3.75;;;;;;;18.99;69.57;100516.50;10413166;28;20068;-73
2023/06/06 18:56:15;;;;;;;9.10;3.33;;;;;;;19.44;71.03;100592.56;10395860;28;20575;-73
2023/06/06 19:01:16;;;;;;;9.43;3.53;;;;;;;19.45;72.16;100621.19;10413275;28;20041;-73
2023/06/06 19:06:17;;;;;;;6.57;3.30;;;;;;;19.44;72.18;100624.91;10413154;28;20041;-73
2023/06/06 19:11:19;;;;;;;6.78;2.85;;;;;;;19.12;71.98;100570.28;10412489;28;20072;-73
2023/06/06 19:16:19;;;;;;;6.82;2.75;;;;;;;19.16;70.92;100574.16;10413471;28;20045;-73
2023/06/06 19:21:20;;;;;;;7.93;2.55;;;;;;;19.61;70.07;100655.66;10395310;28;20041;-73
2023/06/06 19:26:21;;;;;;;8.02;2.97;;;;;;;19.55;71.60;100656.53;10412063;28;20037;-73
2023/06/06 19:31:22;;;;;;;11.40;2.95;;;;;;;19.25;71.71;100633.97;10394526;28;20065;-73
2023/06/06 19:36:25;;;;;;;5.22;2.67;;;;;;;19.50;71.15;100675.22;10412901;28;20041;-73
2023/06/06 19:41:26;;;;;;;10.55;3.15;;;;;;;19.56;71.21;100677.06;10412170;28;20048;-73
2023/06/06 19:46:27;;;;;;;15.45;4.72;;;;;;;19.36;71.60;100650.25;10398914;28;20041;-73
2023/06/06 19:51:27;;;;;;;4.25;2.75;;;;;;;19.34;72.04;100648.81;10420246;28;20440;-73
2023/06/06 19:56:28;;;;;;;11.43;3.15;;;;;;;19.51;71.39;100678.75;10420167;28;20469;-73
2023/06/06 20:01:29;;;;;;;11.32;3.50;;;;;;;18.49;72.00;100519.94;10419816;28;20048;-73
2023/06/06 20:06:34;;;;;;;9.70;3.05;;;;;;;18.91;72.14;100585.72;10401631;28;20124;-73
2023/06/06 20:11:35;;;;;;;12.73;4.75;;;;;;;18.88;72.83;100588.84;10419829;28;20084;-73
2023/06/06 20:16:36;;;;;;;8.15;2.85;;;;;;;19.44;71.30;100675.28;10418827;28;20124;-73
2023/06/06 20:21:37;;;;;;;10.85;2.67;;;;;;;19.44;70.59;100669.88;10418416;28;20511;-72
2023/06/06 20:26:38;;;;;;;6.40;2.42;;;;;;;19.46;71.22;100667.81;10420170;28;20041;-73
2023/06/06 20:31:38;;;;;;;7.18;3.03;;;;;;;19.41;72.16;100668.44;10417844;28;20154;-72
2023/06/06 20:36:40;;;;;;;14.93;3.08;;;;;;;18.96;72.77;100606.59;10419013;28;20069;-73
2023/06/06 20:41:41;;;;;;;16.38;3.10;;;;;;;19.26;73.13;100663.38;10418104;28;20095;-72
2023/06/06 20:46:43;;;;;;;8.30;2.63;;;;;;;19.25;73.54;100664.41;10418525;28;20049;-73
2023/06/06 20:51:45;;;;;;;9.45;2.45;;;;;;;18.76;73.30;100573.63;10417428;28;20053;-73
2023/06/06 20:56:46;;;;;;;11.02;2.13;;;;;;;19.10;73.85;100648.56;10417585;28;20107;-73
2023/06/06 21:01:47;;;;;;;5.32;2.83;;;;;;;19.14;74.15;100652.50;10417671;28;20037;-72
2023/06/06 21:06:48;;;;;;;3.97;2.33;;;;;;;19.11;74.59;100657.47;10418246;28;20048;-73
2023/06/06 21:11:52;;;;;;;5.78;2.20;;;;;;;18.62;74.69;100597.03;10399174;28;20079;-73
2023/06/06 21:16:53;;;;;;;9.25;2.30;;;;;;;18.63;74.63;100596.00;10416995;28;20049;-73
2023/06/06 21:21:54;;;;;;;5.82;2.25;;;;;;;18.57;74.04;100596.84;10416654;28;20041;-72
2023/06/06 21:26:55;;;;;;;5.30;2.40;;;;;;;18.90;73.06;100662.13;10416109;28;20390;-73
2023/06/06 21:31:56;;;;;;;10.73;5.65;;;;;;;18.77;72.35;100648.75;10417153;28;20477;-74
2023/06/06 21:36:56;;;;;;;13.23;4.03;;;;;;;18.06;72.25;100542.03;10415630;28;20037;-73
2023/06/06 21:41:57;;;;;;;8.55;3.10;;;;;;;18.43;71.91;100604.19;10415454;28;20394;-73
2023/06/06 21:46:58;;;;;;;7.93;2.55;;;;;;;18.70;71.44;100648.75;10415313;28;20475;-72
2023/06/06 21:51:59;;;;;;;6.63;2.97;;;;;;;18.78;72.90;100638.81;10415214;28;20124;-73
2023/06/06 21:57:00;;;;;;;5.25;2.67;;;;;;;19.01;72.48;100665.19;10397775;28;20033;-73
2023/06/06 22:02:01;;;;;;;8.00;2.65;;;;;;;19.00;72.37;100656.28;10414681;28;20048;-73
2023/06/06 22:07:03;;;;;;;4.47;2.70;;;;;;;19.01;71.73;100655.25;10414709;28;20034;-73
2023/06/06 22:12:05;;;;;;;6.80;2.80;;;;;;;18.58;73.36;100599.34;10415524;28;20057;-73
2023/06/06 22:17:06;;;;;;;6.15;2.63;;;;;;;18.88;74.25;100652.63;10414030;28;20049;-72
2023/06/06 22:22:07;;;;;;;7.82;3.58;;;;;;;18.90;74.42;100674.75;10414375;28;20048;-73
2023/06/06 22:27:08;;;;;;;7.40;2.78;;;;;;;18.36;74.56;100581.84;10414319;28;20037;-72
2023/06/06 22:32:09;;;;;;;9.00;2.75;;;;;;;18.93;74.68;100661.72;10414113;28;20037;-72
2023/06/06 22:37:10;;;;;;;5.30;2.65;;;;;;;18.89;75.18;100652.41;10396404;28;20096;-72
2023/06/06 22:42:11;;;;;;;4.05;2.50;;;;;;;18.86;76.50;100654.72;10413673;28;20126;-73
2023/06/06 22:47:12;;;;;;;4.60;2.47;;;;;;;18.25;77.61;100564.53;10413068;28;20515;-72
2023/06/06 22:52:13;;;;;;;9.50;2.80;;;;;;;17.88;77.55;100515.00;10395524;28;20045;-72
2023/06/06 22:57:15;;;;;;;8.02;2.80;;;;;;;18.32;78.34;100576.06;10414035;28;20128;-72
2023/06/06 23:02:15;;;;;;;5.30;2.80;;;;;;;18.64;79.44;100657.69;10413242;28;20607;-72